Flag for Finland

Past Weather in 60°26'24.0"N, 22°12'56.9"E, Finland — Yesterday and Last 2 Weeks

Currently: 77 °F. Thundershowers. Cloudy. (Weather station: Turku Airport, Finland). See more current weather

Past Weather in 60°26'24.0"N, 22°12'56.9"E — Graph

°F

60°26'24.0"N, 22°12'56.9"E Temperature Yesterday

Maximum temperature yesterday: 81 °F (at 1:20 pm)
Minimum temperature yesterday: 48 °F (at 3:50 am)
Average temperature yesterday: 68 °F

High & Low Weather Summary for the Past Weeks

 TemperatureHumidityPressure
High82 °F (May 25, 2:50 pm)100% (May 25, 2:20 am)30.30 "Hg (May 25, 2:20 am)
Low37 °F (May 22, 4:50 am)12% (May 20, 3:50 pm)29.83 "Hg (May 19, 6:50 pm)
Average64 °F54%30.14 "Hg
* Reported May 15 4:20 pm — May 30 4:50 pm, 60°26'24.0"N, 22°12'56.9"E. Weather by CustomWeather, © 2024

Note: Actual official high and low records may vary slightly from our data, if they occured in-between our weather recording intervals... More about our weather records

60°26'24.0"N, 22°12'56.9"E Weather History for the Previous 24 Hours

Scroll right to see more
 ConditionsComfort  
Time TempWeatherWind HumidityBarometerVisibility
4:50 pm
Thu, May 30
77 °FWarm.9 mph44%29.89 "HgN/A
3:50 pm77 °FThunderstorms. Cloudy.9 mph51%29.89 "HgN/A
2:50 pm77 °FPassing clouds.7 mph47%29.89 "HgN/A
2:20 pm77 °FPassing clouds.7 mph51%29.89 "HgN/A
1:50 pm77 °FPartly sunny.7 mph47%29.89 "HgN/A
1:20 pm75 °FPassing clouds.6 mph54%29.92 "HgN/A
12:50 pm73 °FSunny.3 mph57%29.92 "Hg10 mi
12:20 pm73 °FPassing clouds.5 mph57%29.92 "HgN/A
11:20 am70 °FPassing clouds.5 mph64%29.92 "HgN/A
10:50 am70 °FPassing clouds.6 mph64%29.92 "HgN/A
10:20 am68 °FPassing clouds.3 mph64%29.92 "HgN/A
9:50 am66 °FPassing clouds.3 mph68%29.92 "HgN/A
9:20 am64 °FSunny.2 mph73%29.92 "Hg10 mi
8:50 am64 °FSunny.2 mph73%29.92 "Hg10 mi
7:50 am61 °FSunny.1 mph83%29.92 "Hg10 mi
7:20 am61 °FSunny.1 mph83%29.92 "Hg10 mi
6:50 am61 °FSunny.2 mph83%29.92 "Hg10 mi
6:20 am59 °FSunny.1 mph88%29.92 "Hg10 mi
5:50 am61 °FSunny.3 mph83%29.92 "Hg10 mi
5:20 am61 °FSunny.3 mph83%29.89 "Hg10 mi
4:20 am61 °FSunny.5 mph88%29.92 "Hg10 mi
3:50 am61 °FClear.3 mph88%29.92 "Hg10 mi
3:20 am59 °FClear.2 mph94%29.92 "Hg10 mi
2:50 am59 °FClear.1 mph94%29.92 "Hg10 mi
2:20 am61 °FClear.2 mph88%29.92 "Hg10 mi
1:50 am64 °FClear.2 mph78%29.92 "Hg10 mi
12:50 am66 °FClear.6 mph73%29.92 "Hg10 mi
12:20 am66 °FPassing clouds.3 mph73%29.92 "HgN/A
11:50 pm
Wed, May 29
68 °FClear.5 mph69%29.92 "Hg10 mi
11:20 pm70 °FPassing clouds.3 mph64%29.92 "HgN/A
10:50 pm70 °FClear.5 mph64%29.92 "Hg10 mi
10:20 pm70 °FSunny.3 mph60%29.92 "Hg10 mi
9:50 pm68 °FSunny.2 mph64%29.92 "Hg10 mi
9:20 pm73 °FSunny.5 mph53%29.89 "Hg10 mi
8:50 pm73 °FMild.7 mph53%29.89 "HgN/A
8:20 pm75 °FPassing clouds.9 mph47%29.89 "HgN/A
7:50 pm77 °FPassing clouds.8 mph42%29.89 "HgN/A
7:20 pm77 °FSunny.8 mph39%29.89 "Hg10 mi
6:50 pm79 °FPassing clouds.8 mph39%29.89 "HgN/A
6:20 pm77 °FPleasantly warm.6 mph39%29.89 "HgN/A
Weather by CustomWeather, © 2024

See weather overview